Time;durP1;ratioP1;P1;durP2;ratioP2;P2;SDS_P1;SDS_P2;PMS_P1;PMS_P2;Temp;Humidity;BMP_temperature;BMP_pressure;BME280_temperature;BME280_humidity;BME280_pressure;Samples;Min_cycle;Max_cycle;Signal;HPM_P1;HPM_P2
2021/11/25 00:01:46;;;;;;;21.83;13.23;;;23.00;43.20;;;;;;6152197;28;83707;-65
2021/11/25 00:04:46;;;;;;;25.55;13.88;;;23.00;42.50;;;;;;6148120;28;83319;-65
2021/11/25 00:07:47;;;;;;;23.23;13.35;;;23.00;42.00;;;;;;6152211;28;83281;-65
2021/11/25 00:10:48;;;;;;;25.10;14.48;;;23.00;42.90;;;;;;6152283;28;83114;-65
2021/11/25 00:13:48;;;;;;;24.27;14.32;;;23.00;42.60;;;;;;6143045;28;82974;-65
2021/11/25 00:16:49;;;;;;;23.38;14.05;;;23.00;42.40;;;;;;6140985;28;83247;-65
2021/11/25 00:19:49;;;;;;;25.08;14.15;;;23.00;42.90;;;;;;6140016;28;84431;-65
2021/11/25 00:22:50;;;;;;;32.28;14.98;;;23.00;42.50;;;;;;6136896;28;83092;-65
2021/11/25 00:25:51;;;;;;;26.17;15.00;;;23.00;42.60;;;;;;6136522;28;83168;-65
2021/11/25 00:28:51;;;;;;;26.05;14.20;;;23.00;41.50;;;;;;6147513;28;83845;-64
2021/11/25 00:31:52;;;;;;;26.15;15.85;;;23.00;42.70;;;;;;6141728;28;83397;-67
2021/11/25 00:34:52;;;;;;;28.40;16.10;;;23.00;43.00;;;;;;6151340;28;84148;-67
2021/11/25 00:37:53;;;;;;;24.88;15.52;;;22.90;43.80;;;;;;6143654;28;82803;-66
2021/11/25 00:40:53;;;;;;;29.15;16.70;;;23.00;42.50;;;;;;6142355;28;83135;-66
2021/11/25 00:43:54;;;;;;;29.27;17.50;;;23.00;41.40;;;;;;6144162;28;83982;-67
2021/11/25 00:46:54;;;;;;;27.63;17.05;;;23.00;41.40;;;;;;6142563;28;83330;-66
2021/11/25 00:49:55;;;;;;;28.17;16.67;;;22.90;41.30;;;;;;6138758;28;83581;-64
2021/11/25 00:52:56;;;;;;;31.45;18.08;;;22.90;42.60;;;;;;6147469;28;83556;-66
2021/11/25 00:55:56;;;;;;;31.52;17.92;;;23.00;42.30;;;;;;6146364;28;83150;-64
2021/11/25 00:58:57;;;;;;;28.60;16.77;;;23.00;42.10;;;;;;6144406;28;83020;-65
2021/11/25 01:01:57;;;;;;;32.05;18.48;;;22.90;41.50;;;;;;6154679;28;83427;-66
2021/11/25 01:04:58;;;;;;;29.35;17.17;;;22.90;42.00;;;;;;6155494;28;84316;-65
2021/11/25 01:07:58;;;;;;;29.23;17.85;;;22.90;43.30;;;;;;6146757;28;83220;-64
2021/11/25 01:10:59;;;;;;;31.77;18.45;;;22.90;41.90;;;;;;6141896;28;83318;-67
2021/11/25 01:13:59;;;;;;;30.23;17.38;;;22.90;41.10;;;;;;6147938;28;83435;-65
2021/11/25 01:17:00;;;;;;;33.08;17.92;;;22.90;41.70;;;;;;6139333;28;83012;-65
2021/11/25 01:20:00;;;;;;;33.17;18.17;;;22.90;42.10;;;;;;6152957;28;85122;-65
2021/11/25 01:23:01;;;;;;;31.73;18.65;;;22.90;41.70;;;;;;6139182;28;83295;-65
2021/11/25 01:26:01;;;;;;;32.72;18.85;;;22.90;41.10;;;;;;6140568;28;82790;-66
2021/11/25 01:29:02;;;;;;;32.72;18.92;;;22.90;41.40;;;;;;6139830;28;83987;-65
2021/11/25 01:32:02;;;;;;;28.75;17.38;;;22.90;41.10;;;;;;6153596;28;84208;-65
2021/11/25 01:35:03;;;;;;;30.90;18.02;;;22.90;41.10;;;;;;6151272;28;83133;-66
2021/11/25 01:38:03;;;;;;;31.90;18.60;;;22.90;41.30;;;;;;6147103;28;82867;-66
2021/11/25 01:41:04;;;;;;;33.17;18.40;;;22.90;41.10;;;;;;6154599;28;83628;-65
2021/11/25 01:44:04;;;;;;;35.00;19.55;;;22.80;41.10;;;;;;6152477;28;83825;-65
2021/11/25 01:47:05;;;;;;;31.55;18.25;;;22.90;41.00;;;;;;6141327;28;83561;-65
2021/11/25 01:50:05;;;;;;;31.00;19.00;;;22.80;40.70;;;;;;6151370;28;83515;-65
2021/11/25 01:53:06;;;;;;;31.90;18.02;;;22.80;40.80;;;;;;6143041;28;83290;-65
2021/11/25 01:56:07;;;;;;;33.17;18.38;;;22.80;40.90;;;;;;6146140;28;83959;-65
2021/11/25 01:59:08;;;;;;;35.05;18.92;;;22.80;40.60;;;;;;6149714;28;84288;-65
2021/11/25 02:02:08;;;;;;;33.13;19.40;;;22.80;40.90;;;;;;6141335;28;85461;-65
2021/11/25 02:05:09;;;;;;;28.70;18.98;;;22.80;40.80;;;;;;6152842;28;83197;-65
2021/11/25 02:08:09;;;;;;;33.00;18.73;;;22.80;41.10;;;;;;6144681;28;83831;-64
2021/11/25 02:11:10;;;;;;;30.65;18.90;;;22.80;41.00;;;;;;6144837;28;84818;-64
2021/11/25 02:14:11;;;;;;;35.40;19.02;;;22.90;41.20;;;;;;6141360;28;83366;-64
2021/11/25 02:17:13;;;;;;;34.08;18.02;;;22.80;41.40;;;;;;6145324;28;83473;-64
2021/11/25 02:20:13;;;;;;;31.35;18.90;;;22.80;41.20;;;;;;6147500;28;84578;-65
2021/11/25 02:23:14;;;;;;;30.85;18.30;;;22.80;41.30;;;;;;6139670;28;83065;-66
2021/11/25 02:26:15;;;;;;;33.00;19.80;;;22.80;41.60;;;;;;6148616;28;83138;-66
2021/11/25 02:29:15;;;;;;;38.00;19.98;;;22.80;41.70;;;;;;6138013;28;83475;-66
2021/11/25 02:32:16;;;;;;;36.67;19.75;;;22.80;41.80;;;;;;6146431;28;83935;-66
2021/11/25 02:35:16;;;;;;;34.38;20.30;;;22.80;41.20;;;;;;6140021;28;83828;-65
2021/11/25 02:38:17;;;;;;;31.83;18.75;;;22.80;41.40;;;;;;6144434;28;83448;-65
2021/11/25 02:41:17;;;;;;;31.48;19.25;;;22.90;41.60;;;;;;6150243;28;84343;-65
2021/11/25 02:44:18;;;;;;;33.28;19.10;;;22.90;42.00;;;;;;6143976;28;82833;-65
2021/11/25 02:47:18;;;;;;;34.92;20.45;;;22.80;40.80;;;;;;6142418;28;83184;-66
2021/11/25 02:50:19;;;;;;;32.28;19.77;;;22.80;40.70;;;;;;6143506;28;83813;-65
2021/11/25 02:53:19;;;;;;;36.15;21.98;;;22.80;40.70;;;;;;6136591;28;83557;-64
2021/11/25 02:56:21;;;;;;;33.55;20.60;;;22.80;40.70;;;;;;6142403;28;83046;-64
2021/11/25 02:59:22;;;;;;;40.22;22.58;;;22.80;40.50;;;;;;6148450;28;87148;-65
2021/11/25 03:02:22;;;;;;;37.22;21.88;;;22.80;40.70;;;;;;6150688;28;83264;-65
2021/11/25 03:05:23;;;;;;;37.83;21.67;;;22.80;40.40;;;;;;6138638;28;83231;-65
2021/11/25 03:08:23;;;;;;;34.92;21.38;;;22.80;40.30;;;;;;6150976;28;83564;-65
2021/11/25 03:11:24;;;;;;;37.63;21.35;;;22.80;40.40;;;;;;6153514;28;82917;-66
2021/11/25 03:14:24;;;;;;;37.75;22.15;;;22.80;39.20;;;;;;6155563;28;83352;-66
2021/11/25 03:17:25;;;;;;;36.22;21.45;;;22.80;39.00;;;;;;6148433;28;82956;-66
2021/11/25 03:20:25;;;;;;;35.05;21.85;;;22.90;39.00;;;;;;6151224;28;83477;-65
2021/11/25 03:23:26;;;;;;;35.50;21.23;;;22.90;38.60;;;;;;6145283;28;83223;-65
2021/11/25 03:26:26;;;;;;;36.35;22.60;;;22.90;38.30;;;;;;6137387;28;83055;-66
2021/11/25 03:29:27;;;;;;;36.92;22.08;;;23.00;38.10;;;;;;6154459;28;83261;-66
2021/11/25 03:32:27;;;;;;;37.40;22.35;;;23.00;37.90;;;;;;6163670;28;84114;-66
2021/11/25 03:35:28;;;;;;;35.60;21.25;;;23.00;37.80;;;;;;6115842;28;85850;-65
2021/11/25 03:38:28;;;;;;;36.15;21.60;;;23.00;37.80;;;;;;6131488;28;83007;-65
2021/11/25 03:41:29;;;;;;;37.85;21.98;;;23.10;37.60;;;;;;6128905;28;83222;-65
2021/11/25 03:44:30;;;;;;;34.63;20.98;;;23.10;37.40;;;;;;6132427;28;83174;-65
2021/11/25 03:47:30;;;;;;;36.95;21.38;;;23.10;37.40;;;;;;6117944;28;83195;-65
2021/11/25 03:50:31;;;;;;;33.53;20.15;;;23.10;37.30;;;;;;6131227;28;85913;-65
2021/11/25 03:53:31;;;;;;;35.50;21.15;;;23.10;37.20;;;;;;6124647;28;84955;-66
2021/11/25 03:56:32;;;;;;;34.03;21.00;;;23.20;37.20;;;;;;6126462;28;83067;-65
2021/11/25 03:59:32;;;;;;;35.97;22.23;;;23.10;37.00;;;;;;6129342;28;83654;-65
2021/11/25 04:02:33;;;;;;;35.10;21.27;;;23.20;37.20;;;;;;6130073;28;84609;-65
2021/11/25 04:05:33;;;;;;;33.83;19.85;;;23.20;37.10;;;;;;6130867;28;84099;-65
2021/11/25 04:08:35;;;;;;;33.10;20.77;;;23.20;37.20;;;;;;6130761;28;83601;-66
2021/11/25 04:11:35;;;;;;;31.67;20.38;;;23.20;37.10;;;;;;6126826;28;83152;-65
2021/11/25 04:14:36;;;;;;;32.92;20.27;;;23.20;37.00;;;;;;6143030;28;84311;-65
2021/11/25 04:17:36;;;;;;;36.08;20.25;;;23.20;37.00;;;;;;6132222;28;83242;-65
2021/11/25 04:20:37;;;;;;;36.50;20.70;;;23.20;37.10;;;;;;6132700;28;83327;-65
2021/11/25 04:23:38;;;;;;;33.15;19.60;;;23.20;37.10;;;;;;6127319;28;85418;-66
2021/11/25 04:26:38;;;;;;;33.92;21.00;;;23.30;37.20;;;;;;6125921;28;83155;-66
2021/11/25 04:29:42;;;;;;;35.45;20.15;;;23.30;37.10;;;;;;6128604;28;85137;-66
2021/11/25 04:36:02;;;;;;;32.33;19.85;;;23.30;37.40;;;;;;6132341;28;83215;-65
2021/11/25 04:39:03;;;;;;;31.63;18.75;;;23.30;37.20;;;;;;6130829;28;83802;-65
2021/11/25 04:42:03;;;;;;;33.22;19.65;;;23.30;37.30;;;;;;6125416;28;83082;-65
2021/11/25 04:45:04;;;;;;;33.63;19.67;;;23.30;37.10;;;;;;6128678;28;86169;-67
2021/11/25 04:48:05;;;;;;;33.30;20.25;;;23.40;37.40;;;;;;6129246;28;84231;-64
2021/11/25 04:51:05;;;;;;;36.65;21.67;;;23.40;37.30;;;;;;6128796;28;85465;-65
2021/11/25 04:54:06;;;;;;;30.80;18.52;;;23.40;37.30;;;;;;6129828;28;82997;-67
2021/11/25 04:57:07;;;;;;;33.00;19.98;;;23.40;37.50;;;;;;6130070;28;84152;-66
2021/11/25 05:00:07;;;;;;;31.05;18.92;;;23.40;37.10;;;;;;6130822;28;83202;-66
2021/11/25 05:03:08;;;;;;;35.10;20.15;;;23.50;37.50;;;;;;6128375;28;84969;-67
2021/11/25 05:06:09;;;;;;;34.22;19.48;;;23.50;37.80;;;;;;6125011;28;84652;-66
2021/11/25 05:09:09;;;;;;;30.80;19.25;;;23.50;37.90;;;;;;6130431;28;83313;-68
2021/11/25 05:12:11;;;;;;;30.02;18.77;;;23.50;38.40;;;;;;6129527;28;83093;-62
2021/11/25 05:15:11;;;;;;;31.13;16.70;;;23.60;38.20;;;;;;6127285;28;83284;-66
2021/11/25 05:18:12;;;;;;;25.85;14.88;;;23.50;39.70;;;;;;6131252;28;83522;-66
2021/11/25 05:21:13;;;;;;;23.58;12.52;;;23.50;41.20;;;;;;6129154;28;84664;-65
2021/11/25 05:24:16;;;;;;;26.98;11.82;;;23.50;41.70;;;;;;6125136;28;85286;-65
2021/11/25 05:27:16;;;;;;;20.65;11.82;;;23.50;42.70;;;;;;6129481;28;84455;-65
2021/11/25 05:30:17;;;;;;;15.32;10.43;;;23.50;42.80;;;;;;6124567;28;83826;-66
2021/11/25 05:33:18;;;;;;;17.63;10.90;;;23.50;43.20;;;;;;6129853;28;83218;-66
2021/11/25 05:36:18;;;;;;;20.85;11.82;;;23.40;43.40;;;;;;6122821;28;82995;-66
2021/11/25 05:39:19;;;;;;;39.97;19.48;;;23.40;43.60;;;;;;6131288;28;82984;-66
2021/11/25 05:42:19;;;;;;;34.67;18.45;;;23.40;44.00;;;;;;6128902;28;82944;-65
2021/11/25 05:45:20;;;;;;;38.60;19.05;;;23.40;44.20;;;;;;6123265;28;83527;-65
2021/11/25 05:48:23;;;;;;;38.83;21.15;;;23.40;44.50;;;;;;6133429;28;83255;-64
2021/11/25 05:51:23;;;;;;;37.40;20.35;;;23.40;44.40;;;;;;6134240;28;82906;-64
2021/11/25 05:54:24;;;;;;;33.97;18.30;;;23.30;44.80;;;;;;6131962;28;83349;-65
2021/11/25 05:57:25;;;;;;;35.03;17.95;;;23.30;45.30;;;;;;6127804;28;84513;-64
2021/11/25 06:00:25;;;;;;;31.20;16.33;;;23.30;45.20;;;;;;6132720;28;84127;-64
2021/11/25 06:03:26;;;;;;;32.60;17.38;;;23.40;45.50;;;;;;6132761;28;83007;-64
2021/11/25 06:06:26;;;;;;;36.20;17.15;;;23.30;45.70;;;;;;6132280;28;83373;-63
2021/11/25 06:09:27;;;;;;;30.58;16.23;;;23.40;46.00;;;;;;6128825;28;83410;-64
2021/11/25 06:12:27;;;;;;;24.92;14.27;;;23.40;46.10;;;;;;6132450;28;82929;-64
2021/11/25 06:15:28;;;;;;;33.60;16.65;;;23.40;45.90;;;;;;6133431;28;83296;-63
2021/11/25 06:18:28;;;;;;;36.05;19.80;;;23.40;46.00;;;;;;6132702;28;82961;-64
2021/11/25 06:21:29;;;;;;;50.53;26.05;;;23.30;45.80;;;;;;6134561;28;86186;-65
2021/11/25 06:24:30;;;;;;;51.90;27.48;;;23.40;45.40;;;;;;6130105;28;84583;-64
2021/11/25 06:27:30;;;;;;;62.83;31.42;;;23.40;44.90;;;;;;6132384;28;84341;-64
2021/11/25 06:30:31;;;;;;;54.08;30.55;;;23.40;44.50;;;;;;6137698;28;83289;-65
2021/11/25 06:33:31;;;;;;;54.97;29.58;;;23.40;44.80;;;;;;6145053;28;85107;-64
2021/11/25 06:36:32;;;;;;;53.90;27.80;;;23.40;44.50;;;;;;6147770;28;84474;-65
2021/11/25 06:39:33;;;;;;;51.78;28.05;;;23.40;44.40;;;;;;6141452;28;83909;-66
2021/11/25 06:42:33;;;;;;;49.40;26.85;;;23.30;44.30;;;;;;6144705;28;82838;-66
2021/11/25 06:45:34;;;;;;;52.92;25.83;;;23.40;44.50;;;;;;6147315;28;84193;-67
2021/11/25 06:48:35;;;;;;;44.90;23.85;;;23.30;45.10;;;;;;6146381;28;83857;-67
2021/11/25 06:51:36;;;;;;;41.20;22.55;;;23.30;45.20;;;;;;6145064;28;84467;-67
2021/11/25 06:54:36;;;;;;;38.58;21.30;;;23.40;45.40;;;;;;6151085;28;84669;-67
2021/11/25 06:57:37;;;;;;;34.85;19.40;;;23.40;45.20;;;;;;6153907;28;83038;-66
2021/11/25 07:00:37;;;;;;;39.15;20.42;;;23.40;45.30;;;;;;6153799;28;83252;-66
2021/11/25 07:03:38;;;;;;;39.38;20.85;;;23.40;45.30;;;;;;6150418;28;83207;-65
2021/11/25 07:06:38;;;;;;;34.58;19.13;;;23.40;45.10;;;;;;6145163;28;83405;-65
2021/11/25 07:09:39;;;;;;;34.35;19.33;;;23.40;45.10;;;;;;6149309;28;83734;-65
2021/11/25 07:12:39;;;;;;;29.17;18.08;;;23.40;44.50;;;;;;6143102;28;84325;-66
2021/11/25 07:15:40;;;;;;;31.75;18.25;;;23.40;44.80;;;;;;6150465;28;83994;-66
2021/11/25 07:18:41;;;;;;;31.13;17.30;;;23.40;44.40;;;;;;6147934;28;84525;-67
2021/11/25 07:21:41;;;;;;;29.40;17.50;;;23.50;44.30;;;;;;6149652;28;83132;-67
2021/11/25 07:24:42;;;;;;;29.95;17.50;;;23.50;43.70;;;;;;6147298;28;84806;-64
2021/11/25 07:27:43;;;;;;;28.40;15.48;;;23.50;44.30;;;;;;6154401;28;83011;-65
2021/11/25 07:30:44;;;;;;;28.45;16.92;;;23.50;43.90;;;;;;6149832;28;83444;-64
2021/11/25 07:33:45;;;;;;;30.20;16.15;;;23.50;43.70;;;;;;6145371;28;83244;-67
2021/11/25 07:36:45;;;;;;;27.98;15.27;;;23.60;43.90;;;;;;6151978;28;83571;-67
2021/11/25 07:39:46;;;;;;;23.83;14.95;;;23.60;43.80;;;;;;6149175;28;83078;-66
2021/11/25 07:42:47;;;;;;;22.13;13.95;;;23.60;43.60;;;;;;6141408;28;84238;-65
2021/11/25 07:45:47;;;;;;;27.45;14.52;;;23.50;44.00;;;;;;6146716;28;83115;-66
2021/11/25 07:48:48;;;;;;;25.77;14.13;;;23.60;44.30;;;;;;6148986;28;83169;-65
2021/11/25 07:51:48;;;;;;;18.13;12.15;;;23.70;44.90;;;;;;6144975;28;84096;-66
2021/11/25 07:54:49;;;;;;;19.75;12.70;;;23.70;44.60;;;;;;6144987;28;84267;-66
2021/11/25 07:57:50;;;;;;;22.05;12.80;;;23.70;44.50;;;;;;6149168;28;84454;-66
2021/11/25 08:00:51;;;;;;;17.10;11.18;;;23.80;44.60;;;;;;6149204;28;83348;-66
2021/11/25 08:03:51;;;;;;;21.30;11.63;;;23.90;44.70;;;;;;6146968;28;84011;-66
2021/11/25 08:06:52;;;;;;;22.27;11.98;;;23.90;44.60;;;;;;6143042;28;83687;-67
2021/11/25 08:09:53;;;;;;;17.00;10.27;;;23.90;44.70;;;;;;6150905;28;82971;-67
2021/11/25 08:12:59;;;;;;;18.48;11.63;;;23.90;44.80;;;;;;6139845;28;83111;-66
2021/11/25 08:15:59;;;;;;;19.83;11.88;;;24.00;44.80;;;;;;6137472;28;84623;-65
2021/11/25 08:19:00;;;;;;;21.92;14.25;;;24.00;44.30;;;;;;6150194;28;83887;-67
2021/11/25 08:22:00;;;;;;;32.67;19.42;;;23.90;44.20;;;;;;6145068;28;83875;-68
2021/11/25 08:25:02;;;;;;;42.40;24.27;;;23.90;39.50;;;;;;6144747;28;84224;-66
2021/11/25 08:28:03;;;;;;;34.10;21.05;;;23.60;38.10;;;;;;6148867;28;84147;-66
2021/11/25 08:31:03;;;;;;;27.35;17.33;;;23.50;39.40;;;;;;6145055;28;84056;-66
2021/11/25 08:34:04;;;;;;;26.13;16.85;;;23.60;40.90;;;;;;6143472;28;84265;-65
2021/11/25 08:37:05;;;;;;;23.77;15.13;;;23.60;41.60;;;;;;6146648;28;83777;-67
2021/11/25 08:40:05;;;;;;;22.90;15.30;;;23.70;41.30;;;;;;6147653;28;82953;-67
2021/11/25 08:43:06;;;;;;;25.30;15.23;;;23.80;41.80;;;;;;6152955;28;83911;-65
2021/11/25 08:46:06;;;;;;;21.23;14.07;;;23.90;42.10;;;;;;6149185;28;83193;-66
2021/11/25 08:49:07;;;;;;;18.52;12.95;;;23.90;42.20;;;;;;6145032;28;83851;-65
2021/11/25 08:52:07;;;;;;;18.67;12.32;;;23.90;42.40;;;;;;6145421;28;83916;-66
2021/11/25 08:55:08;;;;;;;18.80;12.73;;;24.00;42.70;;;;;;6145069;28;83435;-64
2021/11/25 08:58:08;;;;;;;21.95;13.05;;;24.10;42.80;;;;;;6146478;28;83415;-65
2021/11/25 09:01:09;;;;;;;22.13;14.15;;;24.10;43.10;;;;;;6148160;28;83826;-65
2021/11/25 09:04:09;;;;;;;24.27;13.45;;;24.10;42.80;;;;;;6145121;28;84159;-65
2021/11/25 09:07:10;;;;;;;23.00;13.75;;;24.20;44.20;;;;;;6141971;28;84373;-64
2021/11/25 09:10:10;;;;;;;20.80;12.25;;;24.30;44.30;;;;;;6148599;28;83746;-65
2021/11/25 09:13:11;;;;;;;18.92;12.02;;;24.30;44.50;;;;;;6149368;28;83079;-64
2021/11/25 09:16:12;;;;;;;21.33;12.90;;;24.40;44.60;;;;;;6144371;28;83012;-67
2021/11/25 09:19:12;;;;;;;21.30;11.95;;;24.40;44.80;;;;;;6153471;28;83035;-64
2021/11/25 09:22:14;;;;;;;20.60;11.75;;;24.50;45.20;;;;;;6152423;28;83504;-65
2021/11/25 09:25:15;;;;;;;18.02;11.23;;;24.50;44.80;;;;;;6144521;28;86419;-63
2021/11/25 09:28:15;;;;;;;17.15;11.43;;;24.60;45.40;;;;;;6137028;28;84098;-65
2021/11/25 09:31:18;;;;;;;24.50;13.38;;;24.60;45.20;;;;;;6156532;28;83210;-65
2021/11/25 09:34:19;;;;;;;26.85;16.30;;;24.70;45.70;;;;;;6147799;28;83041;-63
2021/11/25 09:37:19;;;;;;;29.25;18.58;;;24.60;43.30;;;;;;6150801;28;83561;-65
2021/11/25 09:40:23;;;;;;;34.47;20.20;;;24.60;42.20;;;;;;6151666;28;83651;-65
2021/11/25 09:43:25;;;;;;;38.60;22.02;;;24.40;42.90;;;;;;6153569;28;84280;-65
2021/11/25 09:46:25;;;;;;;36.45;22.90;;;24.40;42.30;;;;;;6146604;28;83287;-64
2021/11/25 09:49:26;;;;;;;35.50;22.73;;;24.30;42.10;;;;;;6145276;28;83212;-65
2021/11/25 09:52:27;;;;;;;41.63;22.65;;;24.30;42.70;;;;;;6149144;28;83137;-65
2021/11/25 09:55:27;;;;;;;42.05;22.92;;;24.30;41.90;;;;;;6152064;28;83291;-65
2021/11/25 09:58:28;;;;;;;247.90;102.78;;;24.20;41.60;;;;;;6146987;28;83431;-65
2021/11/25 10:01:28;;;;;;;345.73;139.18;;;24.20;41.40;;;;;;6150626;28;87248;-65
2021/11/25 10:04:29;;;;;;;388.38;156.40;;;24.20;40.70;;;;;;6146281;28;85632;-65
2021/11/25 10:07:30;;;;;;;314.08;122.63;;;24.20;40.80;;;;;;6144081;28;85855;-65
2021/11/25 10:10:30;;;;;;;216.07;92.75;;;24.20;40.00;;;;;;6151201;28;85746;-65
2021/11/25 10:13:31;;;;;;;231.35;100.53;;;24.20;39.30;;;;;;6149015;28;85903;-65
2021/11/25 10:16:31;;;;;;;263.48;115.90;;;24.20;39.00;;;;;;6149588;28;85795;-64
2021/11/25 10:19:32;;;;;;;277.50;123.80;;;24.10;39.00;;;;;;6154000;28;85892;-65
2021/11/25 10:22:33;;;;;;;216.70;102.50;;;24.10;38.30;;;;;;6149063;28;86502;-65
2021/11/25 10:25:33;;;;;;;149.05;72.18;;;24.20;38.10;;;;;;6151154;28;86487;-65
2021/11/25 10:28:34;;;;;;;124.50;57.85;;;24.20;37.80;;;;;;6149791;28;86399;-67
2021/11/25 10:31:35;;;;;;;107.55;49.53;;;24.20;37.80;;;;;;6151417;28;83166;-66
2021/11/25 10:34:39;;;;;;;81.30;40.88;;;24.20;37.00;;;;;;6143199;28;83530;-66
2021/11/25 10:37:52;;;;;;;69.10;35.88;;;24.10;37.00;;;;;;6140275;28;83892;-66
2021/11/25 10:40:53;;;;;;;55.40;28.85;;;24.10;36.70;;;;;;6140982;28;85466;-66
2021/11/25 10:43:54;;;;;;;55.25;27.15;;;24.10;36.70;;;;;;6147549;28;83070;-66
2021/11/25 10:46:55;;;;;;;51.47;25.38;;;24.10;36.70;;;;;;6149821;28;83341;-66
2021/11/25 10:49:56;;;;;;;43.80;23.92;;;24.10;36.40;;;;;;6140002;28;83239;-66
2021/11/25 10:52:56;;;;;;;37.28;22.02;;;24.10;37.30;;;;;;6144647;28;83079;-68
2021/11/25 10:55:57;;;;;;;36.97;22.00;;;24.00;36.40;;;;;;6139734;28;84052;-67
2021/11/25 10:58:57;;;;;;;39.50;21.60;;;24.00;36.40;;;;;;6143244;28;85592;-66
2021/11/25 11:01:58;;;;;;;36.30;21.88;;;24.10;36.70;;;;;;6146639;28;83305;-64
2021/11/25 11:04:58;;;;;;;43.13;21.50;;;24.00;36.40;;;;;;6154228;28;83431;-65
2021/11/25 11:07:59;;;;;;;38.72;21.25;;;24.00;36.20;;;;;;6147945;28;83464;-64
2021/11/25 11:10:59;;;;;;;39.75;20.02;;;24.00;36.80;;;;;;6151024;28;83310;-65
2021/11/25 11:14:12;;;;;;;35.70;18.80;;;24.00;37.10;;;;;;6150355;28;82977;-65
2021/11/25 11:17:21;;;;;;;37.38;20.30;;;24.00;36.40;;;;;;6150508;28;82934;-65
2021/11/25 11:20:21;;;;;;;33.55;20.17;;;24.00;36.60;;;;;;6140107;28;90548;-65
2021/11/25 11:23:22;;;;;;;36.50;20.73;;;24.00;36.70;;;;;;6139616;28;84790;-67
2021/11/25 11:26:22;;;;;;;32.13;18.20;;;24.00;36.40;;;;;;6151174;28;83258;-65
2021/11/25 11:29:23;;;;;;;31.40;19.45;;;24.00;36.80;;;;;;6140193;28;83563;-67
2021/11/25 11:32:23;;;;;;;33.10;18.83;;;24.10;36.50;;;;;;6137772;28;83372;-67
2021/11/25 11:35:24;;;;;;;33.80;18.75;;;24.10;36.60;;;;;;6145431;28;85219;-66
2021/11/25 11:38:25;;;;;;;40.55;19.52;;;24.00;36.80;;;;;;6142646;28;83554;-65
2021/11/25 11:41:29;;;;;;;37.40;19.33;;;24.00;36.20;;;;;;6153176;28;83768;-67
2021/11/25 11:44:30;;;;;;;28.27;17.23;;;23.90;35.50;;;;;;6149411;28;83120;-67
2021/11/25 11:47:30;;;;;;;34.13;18.05;;;23.80;35.90;;;;;;6147805;28;90294;-67
2021/11/25 11:50:31;;;;;;;29.75;18.25;;;23.80;35.70;;;;;;6143699;28;83010;-67
2021/11/25 11:53:31;;;;;;;29.98;17.75;;;23.70;35.40;;;;;;6138379;28;82729;-67
2021/11/25 11:56:32;;;;;;;26.63;15.95;;;23.80;35.40;;;;;;6152080;28;83445;-67
2021/11/25 11:59:32;;;;;;;32.38;17.90;;;23.80;36.00;;;;;;6140582;28;83684;-68
2021/11/25 12:02:33;;;;;;;24.88;15.90;;;23.70;35.60;;;;;;6140537;28;82894;-66
2021/11/25 12:05:34;;;;;;;28.98;14.23;;;23.70;35.60;;;;;;6140792;28;83373;-66
2021/11/25 12:08:35;;;;;;;23.55;14.77;;;23.70;36.00;;;;;;6150194;28;84034;-66
2021/11/25 12:11:35;;;;;;;23.13;14.25;;;23.70;35.60;;;;;;6153102;28;83633;-67
2021/11/25 12:14:36;;;;;;;26.45;14.45;;;23.60;35.70;;;;;;6137897;28;83483;-67
2021/11/25 12:17:37;;;;;;;23.55;13.98;;;23.70;36.50;;;;;;6138869;28;83436;-67
2021/11/25 12:20:40;;;;;;;24.25;14.98;;;23.80;36.60;;;;;;6154197;28;83457;-67
2021/11/25 12:23:42;;;;;;;25.08;13.85;;;23.90;36.60;;;;;;6137582;28;83008;-68
2021/11/25 12:26:43;;;;;;;32.55;14.55;;;24.00;36.70;;;;;;6144089;28;83296;-67
2021/11/25 12:29:44;;;;;;;28.40;12.48;;;24.00;37.00;;;;;;6134758;28;84936;-67
2021/11/25 12:35:45;;;;;;;20.73;12.77;;;24.00;37.20;;;;;;6138845;28;84544;-67
2021/11/25 12:38:46;;;;;;;20.98;12.18;;;24.10;37.60;;;;;;6144341;28;83605;-68
2021/11/25 12:41:47;;;;;;;21.38;12.75;;;24.10;37.80;;;;;;6150973;28;83161;-68
2021/11/25 12:44:48;;;;;;;24.38;12.40;;;24.20;38.20;;;;;;6142961;28;83333;-68
2021/11/25 12:47:48;;;;;;;23.45;12.02;;;24.20;38.00;;;;;;6136470;28;83386;-68
2021/11/25 12:50:54;;;;;;;20.27;11.77;;;24.30;38.20;;;;;;6139713;28;83603;-69
2021/11/25 12:53:54;;;;;;;22.70;12.00;;;24.30;37.70;;;;;;6142173;28;83461;-67
2021/11/25 12:56:55;;;;;;;20.52;12.15;;;24.30;37.40;;;;;;6143743;28;83070;-69
2021/11/25 12:59:55;;;;;;;21.90;12.85;;;24.30;37.20;;;;;;6138932;28;84367;-67
2021/11/25 13:02:56;;;;;;;27.60;11.63;;;24.30;37.70;;;;;;6143811;28;84442;-66
2021/11/25 13:05:57;;;;;;;20.90;11.95;;;24.30;38.80;;;;;;6135898;28;85109;-66
2021/11/25 13:08:57;;;;;;;16.20;10.38;;;24.30;37.70;;;;;;6138069;28;84124;-67
2021/11/25 13:12:00;;;;;;;21.75;11.35;;;24.30;37.40;;;;;;6141061;28;83301;-68
2021/11/25 13:15:01;;;;;;;15.65;10.45;;;24.30;37.60;;;;;;6148000;28;83272;-68
2021/11/25 13:18:02;;;;;;;19.08;11.30;;;24.30;37.70;;;;;;6147387;28;82944;-68
2021/11/25 13:21:03;;;;;;;19.38;12.10;;;24.30;37.20;;;;;;6140952;28;83244;-68
2021/11/25 13:24:03;;;;;;;18.83;11.27;;;24.30;37.30;;;;;;6140335;28;84968;-68
2021/11/25 13:27:04;;;;;;;21.88;12.02;;;24.20;37.40;;;;;;6141228;28;83481;-68
2021/11/25 13:30:04;;;;;;;17.92;10.95;;;24.20;37.90;;;;;;6146748;28;82853;-67
2021/11/25 13:33:05;;;;;;;20.95;11.27;;;24.10;37.80;;;;;;6140608;28;82727;-67
2021/11/25 13:36:06;;;;;;;17.90;10.88;;;24.10;37.70;;;;;;6143445;28;83257;-68
2021/11/25 13:39:06;;;;;;;18.15;9.25;;;24.00;38.20;;;;;;6138431;28;82986;-68
2021/11/25 13:42:08;;;;;;;16.02;8.80;;;24.10;38.90;;;;;;6149500;28;85933;-68
2021/11/25 13:45:08;;;;;;;15.73;9.20;;;24.10;40.00;;;;;;6145203;28;80803;-68
2021/11/25 13:48:09;;;;;;;15.20;8.48;;;24.10;41.70;;;;;;6153627;28;80297;-68
2021/11/25 13:51:09;;;;;;;11.20;8.02;;;24.10;42.00;;;;;;6145045;28;80665;-67
2021/11/25 13:54:10;;;;;;;10.45;6.95;;;24.20;42.20;;;;;;6146358;28;80315;-68
2021/11/25 13:57:16;;;;;;;15.30;7.60;;;24.10;42.50;;;;;;6145566;28;80126;-67
2021/11/25 14:00:16;;;;;;;15.32;8.98;;;24.10;42.40;;;;;;6142504;28;80876;-67
2021/11/25 14:03:18;;;;;;;16.17;8.90;;;24.10;43.20;;;;;;6146664;28;83186;-68
2021/11/25 14:06:19;;;;;;;14.65;8.13;;;24.20;43.80;;;;;;6145003;28;81707;-69
2021/11/25 14:09:19;;;;;;;14.77;8.05;;;24.10;43.90;;;;;;6145929;28;81639;-68
2021/11/25 14:12:20;;;;;;;11.88;7.20;;;24.10;44.50;;;;;;6149118;28;80389;-70
2021/11/25 14:15:20;;;;;;;14.70;6.65;;;24.10;45.00;;;;;;6140021;28;80833;-68
2021/11/25 14:18:21;;;;;;;13.30;7.20;;;24.10;45.40;;;;;;6145786;28;80485;-70
2021/11/25 14:21:21;;;;;;;14.05;7.70;;;24.10;45.30;;;;;;6150456;28;82077;-67
2021/11/25 14:24:22;;;;;;;13.32;7.03;;;24.10;45.70;;;;;;6148136;28;82878;-68
2021/11/25 14:30:35;;;;;;;154.75;72.78;;;24.00;46.10;;;;;;6153143;28;81606;-68
2021/11/25 14:33:36;;;;;;;229.55;112.50;;;24.00;46.60;;;;;;6143326;28;83279;-72
2021/11/25 14:36:38;;;;;;;301.60;149.38;;;23.90;47.20;;;;;;6141731;28;85368;-68
2021/11/25 14:39:39;;;;;;;236.57;116.63;;;23.70;47.70;;;;;;6146702;28;86176;-70
2021/11/25 14:42:40;;;;;;;206.77;100.43;;;23.80;48.20;;;;;;6144354;28;87484;-72
2021/11/25 14:45:40;;;;;;;159.75;79.55;;;23.90;48.40;;;;;;6144240;28;87377;-69
2021/11/25 14:48:41;;;;;;;136.10;67.53;;;23.90;48.90;;;;;;6150685;28;86187;-69
2021/11/25 14:51:41;;;;;;;127.40;62.40;;;23.90;49.10;;;;;;6146386;28;83246;-68
2021/11/25 14:54:42;;;;;;;112.18;53.15;;;24.00;49.20;;;;;;6149949;28;83419;-68
2021/11/25 14:57:43;;;;;;;94.95;45.65;;;24.00;49.20;;;;;;6141884;28;85585;-69
2021/11/25 15:00:43;;;;;;;80.45;38.92;;;24.00;49.70;;;;;;6147937;28;82904;-69
2021/11/25 15:03:44;;;;;;;74.80;36.75;;;24.00;49.70;;;;;;6148787;28;84601;-68
2021/11/25 15:06:44;;;;;;;61.75;30.88;;;24.00;49.60;;;;;;6147650;28;84358;-69
2021/11/25 15:09:45;;;;;;;45.65;24.95;;;23.90;49.60;;;;;;6149009;28;83191;-68
2021/11/25 15:12:45;;;;;;;46.80;22.42;;;24.00;49.60;;;;;;6153640;28;83134;-70
2021/11/25 15:15:46;;;;;;;37.25;19.67;;;23.90;49.70;;;;;;6151037;28;84263;-69
2021/11/25 15:18:46;;;;;;;35.15;17.98;;;23.90;49.30;;;;;;6148095;28;84595;-69
2021/11/25 15:21:47;;;;;;;34.50;18.42;;;23.90;49.50;;;;;;6149658;28;83911;-69
2021/11/25 15:24:48;;;;;;;35.35;16.40;;;23.90;49.30;;;;;;6147298;28;85146;-68